Time;durP1;ratioP1;P1;durP2;ratioP2;P2;SDS_P1;SDS_P2;PMS_P1;PMS_P2;Temp;Humidity;BMP_temperature;BMP_pressure;BME280_temperature;BME280_humidity;BME280_pressure;Samples;Min_cycle;Max_cycle;Signal;HPM_P1;HPM_P2
2022/08/14 00:00:47;;;;;;;4.80;4.00;;;;;;;;;;5038450;28;20383;-81
2022/08/14 00:03:24;;;;;;;11.85;4.78;;;;;;;;;;5037609;28;20024;-82
2022/08/14 00:05:50;;;;;;;10.52;4.00;;;;;;;;;;5037370;28;20041;-82
2022/08/14 00:08:15;;;;;;;7.10;3.85;;;;;;;;;;5038451;28;20048;-82
2022/08/14 00:10:42;;;;;;;9.40;3.80;;;;;;;;;;5039207;28;20453;-82
2022/08/14 00:13:09;;;;;;;7.65;4.03;;;;;;;;;;5052595;28;20044;-81
2022/08/14 00:15:38;;;;;;;8.63;4.10;;;;;;;;;;5040425;28;20060;-83
2022/08/14 00:18:05;;;;;;;6.55;3.55;;;;;;;;;;5037426;28;20025;-82
2022/08/14 00:20:32;;;;;;;5.47;3.55;;;;;;;;;;5037806;28;20030;-82
2022/08/14 00:22:58;;;;;;;8.80;4.72;;;;;;;;;;5019504;28;20017;-82
2022/08/14 00:25:25;;;;;;;7.28;4.93;;;;;;;;;;5038109;28;20032;-82
2022/08/14 00:27:51;;;;;;;8.65;5.75;;;;;;;;;;5036225;28;20389;-82
2022/08/14 00:30:16;;;;;;;10.98;4.90;;;;;;;;;;5041962;28;20022;-82
2022/08/14 00:32:42;;;;;;;7.07;4.70;;;;;;;;;;5058021;28;20017;-81
2022/08/14 00:35:09;;;;;;;6.15;3.88;;;;;;;;;;5058864;28;20013;-81
2022/08/14 00:37:40;;;;;;;5.68;3.72;;;;;;;;;;5058347;28;20013;-81
2022/08/14 00:40:08;;;;;;;4.78;3.10;;;;;;;;;;5042335;28;20024;-81
2022/08/14 00:42:33;;;;;;;3.95;3.13;;;;;;;;;;5072103;28;20103;-81
2022/08/14 00:44:59;;;;;;;9.00;3.30;;;;;;;;;;5064031;28;20029;-81
2022/08/14 00:47:24;;;;;;;4.63;3.08;;;;;;;;;;5058209;28;20036;-81
2022/08/14 00:49:52;;;;;;;5.38;3.65;;;;;;;;;;5059593;28;20044;-81
2022/08/14 00:52:19;;;;;;;9.60;3.65;;;;;;;;;;5078378;28;20025;-81
2022/08/14 00:54:51;;;;;;;6.13;3.38;;;;;;;;;;5036628;28;20421;-82
2022/08/14 00:57:19;;;;;;;3.88;2.72;;;;;;;;;;5044990;28;20025;-82
2022/08/14 00:59:44;;;;;;;5.22;3.17;;;;;;;;;;5041116;28;20037;-82
2022/08/14 01:02:12;;;;;;;9.20;3.00;;;;;;;;;;5021157;28;20048;-82
2022/08/14 01:04:38;;;;;;;4.45;2.95;;;;;;;;;;5021242;28;20025;-82
2022/08/14 01:07:06;;;;;;;4.32;2.65;;;;;;;;;;5039318;28;20052;-82
2022/08/14 01:09:33;;;;;;;3.85;2.75;;;;;;;;;;5038706;28;20085;-82
2022/08/14 01:11:59;;;;;;;4.53;2.70;;;;;;;;;;5036974;28;20032;-82
2022/08/14 01:14:24;;;;;;;2.83;2.53;;;;;;;;;;5038332;28;20021;-82
2022/08/14 01:16:50;;;;;;;4.22;2.78;;;;;;;;;;5038530;28;20395;-82
2022/08/14 01:21:59;;;;;;;3.25;2.58;;;;;;;;;;5039820;28;20028;-82
2022/08/14 01:24:25;;;;;;;3.05;2.70;;;;;;;;;;5038395;28;20029;-82
2022/08/14 01:26:52;;;;;;;3.28;2.70;;;;;;;;;;5039355;28;20162;-82
2022/08/14 01:29:18;;;;;;;5.05;2.72;;;;;;;;;;5039009;28;20017;-82
2022/08/14 01:31:51;;;;;;;7.75;2.70;;;;;;;;;;5021616;28;20045;-82
2022/08/14 01:34:19;;;;;;;10.18;3.15;;;;;;;;;;5039232;28;20032;-82
2022/08/14 01:36:45;;;;;;;2.65;2.42;;;;;;;;;;5038803;28;20033;-82
2022/08/14 01:39:14;;;;;;;4.18;2.80;;;;;;;;;;5039436;28;20026;-82
2022/08/14 01:41:42;;;;;;;5.00;2.92;;;;;;;;;;5038425;28;20085;-82
2022/08/14 01:44:14;;;;;;;2.95;2.33;;;;;;;;;;5037254;28;20018;-82
2022/08/14 01:46:43;;;;;;;3.65;2.70;;;;;;;;;;5017670;28;20029;-82
2022/08/14 01:49:16;;;;;;;7.38;3.22;;;;;;;;;;5038983;28;20041;-81
2022/08/14 01:51:43;;;;;;;4.38;2.63;;;;;;;;;;5038046;28;20029;-82
2022/08/14 01:54:14;;;;;;;3.55;2.90;;;;;;;;;;5038617;28;20029;-82
2022/08/14 01:56:43;;;;;;;6.22;2.63;;;;;;;;;;5037855;28;20032;-82
2022/08/14 01:59:20;;;;;;;3.63;2.58;;;;;;;;;;5037317;28;20060;-82
2022/08/14 02:01:52;;;;;;;3.83;2.63;;;;;;;;;;5038362;28;20064;-82
2022/08/14 02:04:19;;;;;;;4.55;2.65;;;;;;;;;;5033384;28;20026;-80
2022/08/14 02:06:49;;;;;;;4.53;2.67;;;;;;;;;;5053285;28;20025;-80
2022/08/14 02:09:16;;;;;;;4.50;2.47;;;;;;;;;;5050042;28;20108;-82
2022/08/14 02:11:42;;;;;;;3.20;2.70;;;;;;;;;;5042997;28;20032;-81
2022/08/14 02:14:10;;;;;;;2.95;2.40;;;;;;;;;;5040469;28;20089;-81
2022/08/14 02:16:42;;;;;;;5.55;2.92;;;;;;;;;;5022535;28;20415;-81
2022/08/14 02:19:10;;;;;;;;;;;;;;;;;;5051492;28;20037;-80
2022/08/14 02:21:38;;;;;;;3.28;2.80;;;;;;;;;;5054719;28;19905;-80
2022/08/14 02:24:04;;;;;;;4.43;2.55;;;;;;;;;;5053782;28;20025;-80
2022/08/14 02:26:33;;;;;;;4.75;2.50;;;;;;;;;;5054423;28;20021;-81
2022/08/14 02:29:08;;;;;;;5.65;2.50;;;;;;;;;;5053090;28;20013;-80
2022/08/14 02:31:37;;;;;;;3.00;2.65;;;;;;;;;;5054143;28;20026;-80
2022/08/14 02:34:09;;;;;;;3.92;2.67;;;;;;;;;;5053372;28;20022;-81
2022/08/14 02:36:39;;;;;;;5.32;2.30;;;;;;;;;;5035470;28;20029;-80
2022/08/14 02:39:07;;;;;;;4.00;2.80;;;;;;;;;;5053625;28;20021;-80
2022/08/14 02:41:34;;;;;;;3.08;2.80;;;;;;;;;;5039851;28;20025;-82
2022/08/14 02:43:59;;;;;;;4.50;2.88;;;;;;;;;;5038296;28;20099;-82
2022/08/14 02:46:25;;;;;;;4.47;2.75;;;;;;;;;;5039460;28;20037;-81
2022/08/14 02:48:50;;;;;;;2.78;2.50;;;;;;;;;;5043641;28;20049;-81
2022/08/14 02:51:16;;;;;;;2.60;2.40;;;;;;;;;;5032394;28;20092;-79
2022/08/14 02:53:44;;;;;;;9.07;3.13;;;;;;;;;;5052983;28;20029;-79
2022/08/14 02:56:15;;;;;;;15.95;3.05;;;;;;;;;;5038706;28;20104;-81
2022/08/14 02:58:47;;;;;;;3.45;2.80;;;;;;;;;;5034634;28;20071;-81
2022/08/14 03:01:17;;;;;;;3.33;2.85;;;;;;;;;;5034659;28;20047;-82
2022/08/14 03:03:44;;;;;;;5.82;3.20;;;;;;;;;;5034671;28;20017;-82
2022/08/14 03:06:11;;;;;;;4.47;2.70;;;;;;;;;;5033514;28;20078;-82
2022/08/14 03:08:39;;;;;;;4.97;3.10;;;;;;;;;;5034598;28;20025;-83
2022/08/14 03:11:08;;;;;;;3.35;2.65;;;;;;;;;;5036188;28;20025;-83
2022/08/14 03:13:35;;;;;;;4.85;2.88;;;;;;;;;;5033200;28;20032;-83
2022/08/14 03:16:05;;;;;;;4.53;3.13;;;;;;;;;;5034766;28;20036;-81
2022/08/14 03:18:31;;;;;;;8.38;2.92;;;;;;;;;;5034773;28;20076;-82
2022/08/14 03:21:06;;;;;;;4.22;2.85;;;;;;;;;;5033667;28;20029;-82
2022/08/14 03:23:33;;;;;;;4.40;2.95;;;;;;;;;;5016956;28;20021;-82
2022/08/14 03:25:59;;;;;;;3.63;2.70;;;;;;;;;;5035071;28;20028;-81
2022/08/14 03:28:28;;;;;;;5.18;3.33;;;;;;;;;;5016261;28;20423;-80
2022/08/14 03:30:54;;;;;;;3.17;2.75;;;;;;;;;;5034133;28;20427;-82
2022/08/14 03:33:19;;;;;;;3.15;2.85;;;;;;;;;;5017198;28;20060;-81
2022/08/14 03:35:44;;;;;;;6.95;3.28;;;;;;;;;;5034639;28;20120;-81
2022/08/14 03:38:11;;;;;;;3.17;2.42;;;;;;;;;;5033939;28;20029;-81
2022/08/14 03:40:40;;;;;;;7.78;3.72;;;;;;;;;;5034796;28;20025;-81
2022/08/14 03:43:06;;;;;;;3.10;2.63;;;;;;;;;;5033163;28;20022;-82
2022/08/14 03:45:36;;;;;;;6.28;2.85;;;;;;;;;;5034569;28;20391;-80
2022/08/14 03:48:13;;;;;;;3.55;2.75;;;;;;;;;;5034063;28;20093;-81
2022/08/14 03:50:43;;;;;;;3.65;2.95;;;;;;;;;;5033617;28;20104;-81
2022/08/14 03:53:09;;;;;;;5.95;2.72;;;;;;;;;;5034251;28;20056;-81
2022/08/14 03:55:37;;;;;;;5.03;3.17;;;;;;;;;;5035311;28;20466;-81
2022/08/14 03:58:02;;;;;;;4.32;3.53;;;;;;;;;;5034608;28;20025;-83
2022/08/14 04:00:28;;;;;;;3.70;2.70;;;;;;;;;;5036874;28;20021;-81
2022/08/14 04:02:53;;;;;;;4.57;3.47;;;;;;;;;;5017751;28;20143;-83
2022/08/14 04:05:19;;;;;;;4.70;2.88;;;;;;;;;;5037967;28;20384;-83
2022/08/14 04:07:45;;;;;;;11.18;3.10;;;;;;;;;;5037252;28;20482;-83
2022/08/14 04:10:11;;;;;;;6.20;2.88;;;;;;;;;;5038199;28;20037;-82
2022/08/14 04:12:36;;;;;;;3.90;3.03;;;;;;;;;;5039036;28;20037;-82
2022/08/14 04:15:03;;;;;;;5.97;3.10;;;;;;;;;;5036914;28;20024;-82
2022/08/14 04:17:28;;;;;;;2.83;2.63;;;;;;;;;;5038113;28;20029;-82
2022/08/14 04:19:54;;;;;;;8.55;3.15;;;;;;;;;;5038743;28;20028;-82
2022/08/14 04:22:21;;;;;;;6.72;3.10;;;;;;;;;;5038496;28;20075;-81
2022/08/14 04:24:46;;;;;;;3.40;2.92;;;;;;;;;;5038373;28;20029;-82
2022/08/14 04:27:12;;;;;;;3.75;2.80;;;;;;;;;;5016166;28;20091;-81
2022/08/14 04:29:42;;;;;;;2.95;2.42;;;;;;;;;;5037919;28;20033;-82
2022/08/14 04:32:08;;;;;;;3.40;2.88;;;;;;;;;;5038445;28;20033;-79
2022/08/14 04:34:38;;;;;;;3.55;2.92;;;;;;;;;;5037746;28;20446;-82
2022/08/14 04:45:20;;;;;;;12.43;3.05;;;;;;;;;;5037663;28;20032;-81
2022/08/14 04:50:28;;;;;;;3.85;3.13;;;;;;;;;;5036852;28;20067;-82
2022/08/14 04:52:55;;;;;;;4.03;2.72;;;;;;;;;;5037187;28;20033;-81
2022/08/14 04:55:21;;;;;;;4.80;3.25;;;;;;;;;;5100652;23;20048;-83
2022/08/14 04:57:47;;;;;;;4.30;2.70;;;;;;;;;;5035502;28;20466;-83
2022/08/14 05:00:13;;;;;;;4.25;2.75;;;;;;;;;;5046391;28;20032;-83
2022/08/14 05:02:39;;;;;;;3.75;2.75;;;;;;;;;;5039707;28;20021;-83
2022/08/14 05:05:04;;;;;;;3.20;2.60;;;;;;;;;;5056649;28;20025;-83
2022/08/14 05:07:30;;;;;;;3.53;2.75;;;;;;;;;;5055973;28;20107;-83
2022/08/14 05:09:55;;;;;;;3.65;2.90;;;;;;;;;;5038269;28;20025;-83
2022/08/14 05:12:21;;;;;;;3.95;2.90;;;;;;;;;;5026233;28;20025;-85
2022/08/14 05:14:47;;;;;;;4.00;2.83;;;;;;;;;;5039663;28;20029;-84
2022/08/14 05:17:12;;;;;;;3.63;2.67;;;;;;;;;;5039323;28;20058;-84
2022/08/14 05:19:38;;;;;;;5.07;2.97;;;;;;;;;;5020281;28;20076;-83
2022/08/14 05:22:04;;;;;;;3.50;2.63;;;;;;;;;;5036485;28;20029;-83
2022/08/14 05:24:30;;;;;;;3.28;2.75;;;;;;;;;;5018700;28;20029;-84
2022/08/14 05:26:55;;;;;;;7.28;3.10;;;;;;;;;;5018163;28;20115;-84
2022/08/14 05:29:21;;;;;;;3.83;2.70;;;;;;;;;;5018220;28;20447;-84
2022/08/14 05:31:46;;;;;;;4.32;3.03;;;;;;;;;;5019201;28;20029;-83
2022/08/14 05:34:12;;;;;;;3.83;3.00;;;;;;;;;;5036378;28;20123;-84
2022/08/14 05:36:37;;;;;;;5.55;3.17;;;;;;;;;;5020925;28;20048;-84
2022/08/14 05:39:03;;;;;;;4.30;3.17;;;;;;;;;;5039675;28;20044;-84
2022/08/14 05:41:29;;;;;;;5.32;3.20;;;;;;;;;;5022702;28;20506;-84
2022/08/14 05:43:54;;;;;;;3.83;2.88;;;;;;;;;;5039269;28;20097;-83
2022/08/14 05:46:24;;;;;;;4.07;3.10;;;;;;;;;;5056379;28;20005;-83
2022/08/14 05:48:55;;;;;;;4.63;2.90;;;;;;;;;;5057978;28;20048;-83
2022/08/14 05:51:22;;;;;;;3.20;2.70;;;;;;;;;;5028330;28;20030;-85
2022/08/14 05:53:47;;;;;;;8.35;2.63;;;;;;;;;;5036383;28;20053;-83
2022/08/14 05:56:13;;;;;;;4.35;2.70;;;;;;;;;;5019124;28;20033;-84
2022/08/14 05:58:38;;;;;;;4.50;3.03;;;;;;;;;;5036381;28;20017;-83
2022/08/14 06:01:04;;;;;;;5.95;3.17;;;;;;;;;;5036871;28;20445;-84
2022/08/14 06:03:30;;;;;;;4.75;3.00;;;;;;;;;;5036740;28;20048;-84
2022/08/14 06:05:55;;;;;;;2.72;2.53;;;;;;;;;;5034835;28;20048;-83
2022/08/14 06:08:25;;;;;;;4.45;3.00;;;;;;;;;;5036578;28;20021;-84
2022/08/14 06:10:53;;;;;;;6.18;3.10;;;;;;;;;;5035422;28;20022;-83
2022/08/14 06:13:20;;;;;;;5.88;2.80;;;;;;;;;;5036069;28;20025;-84
2022/08/14 06:15:46;;;;;;;5.53;3.20;;;;;;;;;;5034816;28;20120;-84
2022/08/14 06:18:11;;;;;;;3.78;2.80;;;;;;;;;;5036278;28;20450;-84
2022/08/14 06:20:37;;;;;;;3.13;2.75;;;;;;;;;;5037385;28;20017;-84
2022/08/14 06:23:03;;;;;;;3.58;2.97;;;;;;;;;;5035362;28;20018;-83
2022/08/14 06:25:29;;;;;;;4.32;3.53;;;;;;;;;;5018397;28;20044;-84
2022/08/14 06:27:55;;;;;;;4.78;2.70;;;;;;;;;;5037079;28;20021;-84
2022/08/14 06:30:23;;;;;;;5.60;2.60;;;;;;;;;;5023925;28;20095;-83
2022/08/14 06:32:48;;;;;;;4.15;3.20;;;;;;;;;;5036925;28;20091;-83
2022/08/14 06:35:17;;;;;;;3.15;2.67;;;;;;;;;;5036810;28;20021;-85
2022/08/14 06:37:52;;;;;;;3.40;2.58;;;;;;;;;;5019452;28;20049;-84
2022/08/14 06:40:38;;;;;;;3.60;3.05;;;;;;;;;;5018865;28;20056;-83
2022/08/14 06:43:05;;;;;;;3.25;2.70;;;;;;;;;;5034676;28;20089;-84
2022/08/14 06:45:31;;;;;;;6.60;3.03;;;;;;;;;;5051762;22;20048;-82
2022/08/14 06:47:59;;;;;;;2.53;2.33;;;;;;;;;;5047374;28;20060;-82
2022/08/14 06:50:26;;;;;;;5.80;2.25;;;;;;;;;;5035355;28;20025;-82
2022/08/14 06:52:52;;;;;;;2.58;2.22;;;;;;;;;;5021998;28;20024;-82
2022/08/14 06:55:18;;;;;;;3.20;2.30;;;;;;;;;;5035042;28;20029;-81
2022/08/14 06:57:46;;;;;;;2.60;2.05;;;;;;;;;;5017246;28;20017;-82
2022/08/14 07:00:22;;;;;;;5.18;2.00;;;;;;;;;;5026732;28;20018;-84
2022/08/14 07:05:45;;;;;;;2.72;1.90;;;;;;;;;;5043461;28;20032;-84
2022/08/14 07:08:17;;;;;;;3.10;2.20;;;;;;;;;;5025833;28;20036;-85
2022/08/14 07:10:49;;;;;;;2.38;2.05;;;;;;;;;;5041866;28;20017;-84
2022/08/14 07:13:19;;;;;;;2.17;1.98;;;;;;;;;;5035714;28;20025;-84
2022/08/14 07:15:49;;;;;;;4.13;2.25;;;;;;;;;;5042357;28;20036;-84
2022/08/14 07:18:18;;;;;;;2.20;2.00;;;;;;;;;;5042478;28;20021;-83
2022/08/14 07:20:43;;;;;;;5.00;2.17;;;;;;;;;;5025710;28;20075;-84
2022/08/14 07:23:09;;;;;;;2.38;1.67;;;;;;;;;;5024756;28;20138;-84
2022/08/14 07:25:37;;;;;;;3.67;1.70;;;;;;;;;;5044060;28;20029;-83
2022/08/14 07:28:14;;;;;;;4.07;2.00;;;;;;;;;;5042693;28;20072;-84
2022/08/14 07:30:39;;;;;;;2.60;1.90;;;;;;;;;;5039638;28;20006;-83
2022/08/14 07:33:05;;;;;;;4.45;2.22;;;;;;;;;;5056513;28;20041;-84
2022/08/14 07:35:32;;;;;;;6.13;2.10;;;;;;;;;;5056701;28;20029;-84
2022/08/14 07:37:58;;;;;;;2.10;1.90;;;;;;;;;;5056463;28;20025;-84
2022/08/14 07:40:23;;;;;;;2.85;2.00;;;;;;;;;;5060447;28;20041;-84
2022/08/14 07:42:49;;;;;;;2.17;1.98;;;;;;;;;;5059906;28;20009;-85
2022/08/14 07:45:15;;;;;;;3.40;1.98;;;;;;;;;;5058838;28;20021;-86
2022/08/14 07:47:41;;;;;;;3.67;1.88;;;;;;;;;;5058373;28;20052;-85
2022/08/14 07:50:18;;;;;;;2.08;1.90;;;;;;;;;;5042623;28;20094;-86
2022/08/14 07:52:46;;;;;;;7.88;2.13;;;;;;;;;;5056937;28;20142;-84
2022/08/14 07:55:13;;;;;;;2.25;1.80;;;;;;;;;;5056393;28;20028;-85
2022/08/14 07:57:40;;;;;;;3.85;2.03;;;;;;;;;;5049380;28;20037;-85
2022/08/14 08:00:14;;;;;;;3.17;1.70;;;;;;;;;;5053620;28;20098;-85
2022/08/14 08:02:41;;;;;;;2.83;1.80;;;;;;;;;;5030343;28;20089;-84
2022/08/14 08:05:09;;;;;;;3.47;1.92;;;;;;;;;;5031880;28;20026;-85
2022/08/14 08:07:36;;;;;;;2.30;1.92;;;;;;;;;;5048422;28;20025;-85
2022/08/14 08:10:29;;;;;;;2.10;1.90;;;;;;;;;;5049392;28;20021;-85
2022/08/14 08:12:55;;;;;;;2.63;1.98;;;;;;;;;;5048908;28;20526;-85
2022/08/14 08:15:22;;;;;;;3.63;1.70;;;;;;;;;;5047868;28;20467;-85
2022/08/14 08:17:47;;;;;;;1.50;1.40;;;;;;;;;;5048677;28;20033;-85
2022/08/14 08:20:18;;;;;;;2.97;1.60;;;;;;;;;;5043365;28;20025;-82
2022/08/14 08:22:44;;;;;;;2.20;1.67;;;;;;;;;;5042226;28;20068;-82
2022/08/14 08:25:11;;;;;;;4.32;2.10;;;;;;;;;;5038643;28;20029;-82
2022/08/14 08:27:36;;;;;;;2.85;1.85;;;;;;;;;;5038059;28;20093;-82
2022/08/14 08:30:08;;;;;;;2.65;1.67;;;;;;;;;;5044042;28;20554;-83
2022/08/14 08:32:44;;;;;;;1.80;1.70;;;;;;;;;;5028789;28;20098;-84
2022/08/14 08:35:17;;;;;;;2.10;1.73;;;;;;;;;;5050746;28;20014;-85
2022/08/14 08:37:42;;;;;;;3.30;1.95;;;;;;;;;;5046887;28;20032;-85
2022/08/14 08:40:08;;;;;;;2.05;1.85;;;;;;;;;;5048726;28;20057;-85
2022/08/14 08:42:34;;;;;;;6.22;2.08;;;;;;;;;;5049306;28;20029;-84
2022/08/14 08:44:59;;;;;;;1.73;1.63;;;;;;;;;;5038089;28;20041;-85
2022/08/14 08:47:25;;;;;;;2.45;1.90;;;;;;;;;;5050894;28;20029;-84
2022/08/14 08:49:51;;;;;;;5.82;1.60;;;;;;;;;;5029984;28;20017;-85
2022/08/14 08:52:17;;;;;;;4.13;1.75;;;;;;;;;;5030580;28;20029;-82
2022/08/14 08:54:52;;;;;;;1.60;1.50;;;;;;;;;;5048737;28;20025;-84
2022/08/14 08:57:17;;;;;;;1.60;1.50;;;;;;;;;;5048253;28;20022;-84
2022/08/14 08:59:43;;;;;;;2.92;1.42;;;;;;;;;;5035338;28;20593;-84
2022/08/14 09:02:08;;;;;;;1.92;1.73;;;;;;;;;;5030807;28;20029;-84
2022/08/14 09:04:40;;;;;;;1.70;1.60;;;;;;;;;;5029172;28;20052;-84
2022/08/14 09:07:06;;;;;;;2.15;1.98;;;;;;;;;;5049492;28;20105;-83
2022/08/14 09:09:32;;;;;;;2.03;1.83;;;;;;;;;;5031065;28;20025;-84
2022/08/14 09:12:00;;;;;;;2.08;1.95;;;;;;;;;;5060855;28;20032;-84
2022/08/14 09:14:28;;;;;;;2.80;1.60;;;;;;;;;;5059137;28;20025;-84
2022/08/14 09:16:55;;;;;;;3.70;1.90;;;;;;;;;;5035684;28;20033;-85
2022/08/14 09:19:20;;;;;;;3.33;1.70;;;;;;;;;;5029997;28;20026;-84
2022/08/14 09:21:46;;;;;;;5.47;1.88;;;;;;;;;;5037008;28;20013;-83
2022/08/14 09:24:13;;;;;;;2.20;2.00;;;;;;;;;;5052709;28;20033;-85
2022/08/14 09:26:40;;;;;;;2.00;1.90;;;;;;;;;;5036459;28;20025;-85
2022/08/14 09:29:07;;;;;;;1.85;1.75;;;;;;;;;;5056396;28;20006;-81
2022/08/14 09:31:35;;;;;;;2.72;1.85;;;;;;;;;;5075272;28;20054;-84
2022/08/14 09:34:11;;;;;;;3.17;1.80;;;;;;;;;;5037981;28;20025;-84
2022/08/14 09:36:58;;;;;;;3.38;1.80;;;;;;;;;;5060181;28;20026;-83
2022/08/14 09:39:58;;;;;;;2.90;2.00;;;;;;;;;;5056083;28;20017;-83
2022/08/14 09:42:46;;;;;;;2.50;2.20;;;;;;;;;;5038269;28;20026;-84
2022/08/14 09:45:17;;;;;;;1.90;1.80;;;;;;;;;;5040017;28;20025;-86
2022/08/14 09:47:55;;;;;;;3.47;1.90;;;;;;;;;;5031377;28;20021;-85
2022/08/14 09:50:31;;;;;;;1.73;1.63;;;;;;;;;;5047470;28;20041;-85
2022/08/14 09:53:06;;;;;;;2.45;1.80;;;;;;;;;;5049596;28;20075;-85
2022/08/14 09:55:34;;;;;;;2.90;1.90;;;;;;;;;;5048961;28;20028;-84
2022/08/14 09:58:19;;;;;;;4.07;2.13;;;;;;;;;;5046163;28;20475;-84
2022/08/14 10:00:56;;;;;;;3.30;2.10;;;;;;;;;;5046304;28;20022;-84
2022/08/14 10:03:35;;;;;;;1.98;1.75;;;;;;;;;;5045086;28;20029;-87
2022/08/14 10:06:29;;;;;;;1.70;1.60;;;;;;;;;;5046625;28;20021;-84
2022/08/14 10:09:01;;;;;;;2.70;1.88;;;;;;;;;;5022625;28;20044;-85
2022/08/14 10:11:30;;;;;;;2.95;1.80;;;;;;;;;;5044425;28;20025;-84
2022/08/14 10:14:17;;;;;;;2.92;1.63;;;;;;;;;;5027205;28;20084;-84
2022/08/14 10:16:44;;;;;;;2.40;2.20;;;;;;;;;;5043855;28;20483;-82
2022/08/14 10:19:13;;;;;;;3.75;1.88;;;;;;;;;;5050009;28;20052;-85
2022/08/14 10:21:42;;;;;;;2.08;1.88;;;;;;;;;;5044521;28;20052;-83
2022/08/14 10:24:11;;;;;;;2.17;1.90;;;;;;;;;;5043519;28;20029;-85
2022/08/14 10:26:37;;;;;;;2.17;2.00;;;;;;;;;;5043670;28;20052;-84
2022/08/14 10:29:11;;;;;;;2.28;1.80;;;;;;;;;;5047603;28;20025;-84
2022/08/14 10:31:37;;;;;;;2.00;1.88;;;;;;;;;;5028714;28;20072;-82
2022/08/14 10:34:04;;;;;;;3.28;1.83;;;;;;;;;;5043880;28;20030;-84
2022/08/14 10:36:35;;;;;;;3.40;2.00;;;;;;;;;;5043466;28;20053;-85
2022/08/14 10:39:04;;;;;;;;;;;;;;;;;;5045237;28;20045;-83
2022/08/14 10:41:38;;;;;;;2.15;1.90;;;;;;;;;;5045172;28;19913;-85
2022/08/14 10:44:13;;;;;;;2.20;2.00;;;;;;;;;;5032895;28;20033;-84
2022/08/14 10:46:57;;;;;;;2.17;2.08;;;;;;;;;;5025996;28;20469;-85
2022/08/14 10:49:25;;;;;;;2.25;1.88;;;;;;;;;;5044717;28;20074;-82
2022/08/14 10:52:09;;;;;;;3.65;2.15;;;;;;;;;;5026178;28;20026;-82
2022/08/14 10:54:39;;;;;;;3.13;2.03;;;;;;;;;;5048083;28;20068;-84
2022/08/14 10:57:25;;;;;;;3.10;2.05;;;;;;;;;;5025509;28;20497;-85
2022/08/14 10:59:54;;;;;;;2.38;2.17;;;;;;;;;;5029844;28;20026;-84
2022/08/14 11:02:28;;;;;;;2.20;2.00;;;;;;;;;;5043748;28;20021;-84
2022/08/14 11:05:00;;;;;;;2.17;1.95;;;;;;;;;;5026771;28;20033;-83
2022/08/14 11:07:26;;;;;;;3.13;2.20;;;;;;;;;;5044071;28;20033;-83
2022/08/14 11:09:56;;;;;;;2.15;2.03;;;;;;;;;;5027491;28;20562;-84
2022/08/14 11:12:24;;;;;;;2.87;2.00;;;;;;;;;;5028136;28;20027;-83
2022/08/14 11:14:58;;;;;;;2.88;2.10;;;;;;;;;;5052444;28;20017;-84
2022/08/14 11:17:27;;;;;;;2.92;2.20;;;;;;;;;;5029107;28;20025;-84
2022/08/14 11:19:57;;;;;;;5.95;2.08;;;;;;;;;;5045008;28;20025;-83
2022/08/14 11:22:26;;;;;;;3.53;2.33;;;;;;;;;;5035436;28;20021;-83
2022/08/14 11:24:55;;;;;;;3.03;2.20;;;;;;;;;;5045997;28;20506;-83
2022/08/14 11:27:23;;;;;;;2.92;2.00;;;;;;;;;;5032946;28;20022;-83
2022/08/14 11:29:49;;;;;;;3.83;2.20;;;;;;;;;;5045547;28;20034;-84
2022/08/14 11:32:18;;;;;;;2.60;2.40;;;;;;;;;;5027596;28;20060;-85
2022/08/14 11:34:45;;;;;;;5.03;2.10;;;;;;;;;;5048293;28;20041;-84
2022/08/14 11:37:11;;;;;;;1.80;1.70;;;;;;;;;;5028519;28;20029;-83
2022/08/14 11:39:37;;;;;;;4.88;2.13;;;;;;;;;;5028226;28;20037;-84
2022/08/14 11:42:17;;;;;;;2.95;2.20;;;;;;;;;;5025820;28;20085;-83
2022/08/14 11:44:42;;;;;;;2.00;1.80;;;;;;;;;;5035986;28;20029;-84
2022/08/14 11:47:17;;;;;;;3.65;2.00;;;;;;;;;;5043877;28;20029;-84
2022/08/14 11:49:43;;;;;;;2.10;1.98;;;;;;;;;;5044953;28;20017;-84
2022/08/14 11:52:08;;;;;;;2.20;2.00;;;;;;;;;;5025067;28;20017;-84
2022/08/14 11:54:34;;;;;;;2.38;1.95;;;;;;;;;;5042785;28;20472;-83
2022/08/14 11:57:00;;;;;;;2.90;2.05;;;;;;;;;;5049527;28;20029;-82
2022/08/14 11:59:28;;;;;;;2.88;2.10;;;;;;;;;;5043323;28;20030;-84
2022/08/14 12:01:53;;;;;;;3.03;2.35;;;;;;;;;;5024975;28;20051;-83
2022/08/14 12:04:20;;;;;;;2.85;1.80;;;;;;;;;;5043060;28;20037;-84
2022/08/14 12:06:51;;;;;;;2.60;2.40;;;;;;;;;;5043442;28;20527;-83
2022/08/14 12:09:31;;;;;;;1.90;1.80;;;;;;;;;;5047451;28;20077;-82
2022/08/14 12:11:57;;;;;;;1.90;1.80;;;;;;;;;;5025248;28;20022;-82
2022/08/14 12:14:22;;;;;;;3.08;2.30;;;;;;;;;;5032863;28;20056;-83
2022/08/14 12:17:06;;;;;;;1.85;1.73;;;;;;;;;;5043486;28;20048;-83
2022/08/14 12:19:53;;;;;;;4.20;2.15;;;;;;;;;;5045037;28;20036;-82
2022/08/14 12:22:31;;;;;;;2.83;2.00;;;;;;;;;;5044458;28;20052;-83
2022/08/14 12:24:56;;;;;;;2.10;1.90;;;;;;;;;;5029002;28;20025;-83
2022/08/14 12:27:23;;;;;;;2.22;2.03;;;;;;;;;;5033820;28;20029;-83
2022/08/14 12:29:52;;;;;;;3.58;2.25;;;;;;;;;;5046929;28;20083;-82
2022/08/14 12:32:18;;;;;;;3.22;2.10;;;;;;;;;;5047356;28;20097;-82
2022/08/14 12:34:51;;;;;;;3.55;1.80;;;;;;;;;;5047963;28;20081;-82
2022/08/14 12:37:16;;;;;;;1.73;1.63;;;;;;;;;;5029441;28;20025;-83
2022/08/14 12:39:43;;;;;;;1.92;1.73;;;;;;;;;;5030270;28;20084;-83
2022/08/14 12:42:09;;;;;;;2.25;2.05;;;;;;;;;;5048273;28;20017;-83
2022/08/14 12:44:37;;;;;;;3.92;2.25;;;;;;;;;;5043190;28;20021;-84
2022/08/14 12:47:13;;;;;;;2.20;1.80;;;;;;;;;;5045492;28;20057;-83
2022/08/14 12:49:51;;;;;;;2.13;1.80;;;;;;;;;;5027297;28;20025;-82
2022/08/14 12:52:33;;;;;;;1.95;1.85;;;;;;;;;;5026979;28;20028;-82
2022/08/14 12:55:00;;;;;;;2.65;1.70;;;;;;;;;;5028398;28;20025;-83
2022/08/14 12:57:34;;;;;;;2.45;1.67;;;;;;;;;;5025567;28;20017;-84
2022/08/14 13:00:16;;;;;;;2.15;1.95;;;;;;;;;;5025863;28;20032;-84
2022/08/14 13:02:42;;;;;;;2.35;1.88;;;;;;;;;;5025207;28;20052;-83
2022/08/14 13:05:09;;;;;;;2.80;1.85;;;;;;;;;;5045239;28;20092;-83
2022/08/14 13:07:36;;;;;;;3.78;1.70;;;;;;;;;;5043390;28;20111;-84
2022/08/14 13:10:02;;;;;;;1.92;1.83;;;;;;;;;;5044054;28;20025;-82
2022/08/14 13:12:28;;;;;;;2.72;2.20;;;;;;;;;;5051644;28;20110;-85
2022/08/14 13:14:58;;;;;;;3.22;1.70;;;;;;;;;;5071135;23;20040;-83
2022/08/14 13:17:24;;;;;;;2.15;1.80;;;;;;;;;;5031747;28;20024;-83
2022/08/14 13:19:54;;;;;;;1.73;1.60;;;;;;;;;;5018337;28;20487;-82
2022/08/14 13:22:25;;;;;;;1.75;1.65;;;;;;;;;;5037731;28;20060;-83
2022/08/14 13:24:51;;;;;;;3.25;2.17;;;;;;;;;;5037435;28;20025;-82
2022/08/14 13:27:22;;;;;;;1.90;1.80;;;;;;;;;;5037340;28;20066;-82
2022/08/14 13:32:55;;;;;;;2.15;1.58;;;;;;;;;;4972436;28;20091;-81
2022/08/14 13:35:20;;;;;;;1.60;1.50;;;;;;;;;;5019093;28;20471;-80
2022/08/14 13:37:51;;;;;;;1.20;1.20;;;;;;;;;;5023994;28;20037;-84
2022/08/14 13:40:19;;;;;;;1.42;1.33;;;;;;;;;;5000632;28;20028;-83
2022/08/14 13:42:49;;;;;;;1.83;1.70;;;;;;;;;;5017882;28;20026;-81
2022/08/14 13:45:27;;;;;;;3.83;1.67;;;;;;;;;;5019196;28;20415;-80
2022/08/14 13:47:54;;;;;;;1.70;1.60;;;;;;;;;;5007816;28;20492;-81
2022/08/14 13:50:20;;;;;;;2.00;1.70;;;;;;;;;;5017609;28;20029;-81
2022/08/14 13:52:54;;;;;;;1.77;1.67;;;;;;;;;;4999164;28;20045;-80
2022/08/14 13:55:28;;;;;;;1.75;1.65;;;;;;;;;;5017095;28;20459;-81
2022/08/14 13:58:02;;;;;;;1.48;1.27;;;;;;;;;;5025021;28;20029;-82
2022/08/14 14:00:31;;;;;;;1.80;1.33;;;;;;;;;;5017634;28;20014;-82
2022/08/14 14:02:57;;;;;;;1.85;1.45;;;;;;;;;;5004236;28;20033;-82
2022/08/14 14:05:23;;;;;;;1.55;1.42;;;;;;;;;;4999983;28;20022;-81
2022/08/14 14:07:51;;;;;;;1.90;1.40;;;;;;;;;;5016398;28;20452;-82
2022/08/14 14:10:24;;;;;;;1.52;1.40;;;;;;;;;;5013461;28;20033;-83
2022/08/14 14:12:53;;;;;;;2.10;1.30;;;;;;;;;;5019168;28;20503;-83
2022/08/14 14:15:19;;;;;;;1.50;1.40;;;;;;;;;;5028772;28;20033;-82
2022/08/14 14:17:49;;;;;;;1.55;1.42;;;;;;;;;;5034509;28;20021;-81
2022/08/14 14:20:18;;;;;;;1.33;1.23;;;;;;;;;;5001799;28;20373;-82
2022/08/14 14:22:50;;;;;;;1.70;1.60;;;;;;;;;;5018843;28;20068;-83
2022/08/14 14:25:18;;;;;;;1.48;1.25;;;;;;;;;;5021024;28;20022;-82
2022/08/14 14:27:47;;;;;;;1.98;1.88;;;;;;;;;;5000551;28;20088;-83
2022/08/14 14:30:15;;;;;;;1.60;1.50;;;;;;;;;;5018356;28;20502;-82
2022/08/14 14:32:44;;;;;;;2.42;1.63;;;;;;;;;;5038403;28;20028;-81
2022/08/14 14:35:15;;;;;;;1.90;1.80;;;;;;;;;;5037975;28;20085;-82
2022/08/14 14:37:42;;;;;;;1.45;1.40;;;;;;;;;;5024528;28;20026;-82
2022/08/14 14:40:12;;;;;;;2.35;1.35;;;;;;;;;;5018276;28;20022;-81
2022/08/14 14:43:09;;;;;;;1.70;1.60;;;;;;;;;;5018468;28;20100;-82
2022/08/14 14:46:06;;;;;;;1.67;1.58;;;;;;;;;;4991771;28;20044;-82
2022/08/14 14:48:43;;;;;;;1.50;1.40;;;;;;;;;;5025816;28;20037;-83
2022/08/14 14:51:11;;;;;;;1.45;1.35;;;;;;;;;;5017286;28;20037;-83
2022/08/14 14:53:38;;;;;;;1.70;1.60;;;;;;;;;;5033937;28;20487;-82
2022/08/14 14:56:04;;;;;;;1.92;1.40;;;;;;;;;;5035567;28;20040;-81
2022/08/14 14:58:29;;;;;;;2.08;1.55;;;;;;;;;;5012414;28;20018;-84
2022/08/14 15:00:58;;;;;;;1.40;1.33;;;;;;;;;;5019144;28;20018;-82
2022/08/14 15:03:24;;;;;;;1.77;1.40;;;;;;;;;;5018429;28;20018;-81
2022/08/14 15:05:52;;;;;;;1.40;1.25;;;;;;;;;;5019965;28;20029;-81
2022/08/14 15:08:17;;;;;;;1.65;1.50;;;;;;;;;;5038996;28;20025;-83
2022/08/14 15:10:43;;;;;;;1.50;1.40;;;;;;;;;;5038399;28;20033;-81
2022/08/14 15:13:09;;;;;;;2.10;1.30;;;;;;;;;;5018293;28;20537;-82